Frenchburg, Kentucky
Current Conditions -  °F | °C
As of 11:50 PM on Tuesday 21 Oct 2014 (Local Time) from KSYM Reporting Station
Overcast Overcast  
Wind Chill: 44°   Ceiling: 4600
Heat Index: 46°   Visibility: 10mi
Dew Point: 41°   Wind: 6mph
Humidity: 81%   Direction: 10°N
Pressure: 30.17"   Gusts: NA
Location:  37.95°N, 83.63°W
Report Text: KSYM 220350Z AUTO 01005KT 10SM OVC046 08/05 A3017 RMK AO2
Loading
Personal Weather Stations






























Interactive Weather Map
Tropical Storm Tracking
New forecast layout! Learn more

10-Day Weather Forecast

Advertisements
Track Severe Weather on mobile